createdAt,value
2022-08-21T00:01:51.730Z,13.60
2022-08-21T00:04:22.439Z,13.60
2022-08-21T00:06:53.100Z,13.60
2022-08-21T00:09:21.357Z,13.50
2022-08-21T00:11:48.955Z,13.50
2022-08-21T00:14:17.101Z,13.50
2022-08-21T00:16:44.326Z,13.50
2022-08-21T00:19:11.503Z,13.40
2022-08-21T00:21:38.539Z,13.40
2022-08-21T00:24:06.359Z,13.40
2022-08-21T00:26:34.999Z,13.30
2022-08-21T00:29:04.544Z,13.20
2022-08-21T00:31:31.731Z,13.20
2022-08-21T00:34:00.990Z,13.10
2022-08-21T00:36:28.914Z,13.10
2022-08-21T00:38:56.384Z,13.00
2022-08-21T00:41:37.043Z,12.90
2022-08-21T00:44:08.417Z,12.90
2022-08-21T00:46:35.918Z,12.80
2022-08-21T00:49:03.543Z,12.70
2022-08-21T00:51:39.067Z,12.70
2022-08-21T00:54:15.485Z,12.70
2022-08-21T00:56:49.155Z,12.60
2022-08-21T00:59:19.752Z,12.60
2022-08-21T01:01:47.311Z,12.50
2022-08-21T01:04:14.562Z,12.50
2022-08-21T01:06:41.548Z,12.50
2022-08-21T01:09:08.583Z,12.40
2022-08-21T01:11:35.911Z,12.30
2022-08-21T01:14:03.441Z,12.30
2022-08-21T01:16:30.795Z,12.20
2022-08-21T01:18:57.896Z,12.20
2022-08-21T01:21:28.360Z,12.20
2022-08-21T01:23:57.194Z,12.20
2022-08-21T01:26:34.092Z,12.10
2022-08-21T01:29:26.396Z,12.20
2022-08-21T01:31:53.547Z,12.10
2022-08-21T01:34:20.938Z,12.10
2022-08-21T01:36:49.076Z,12.10
2022-08-21T01:39:16.343Z,12.10
2022-08-21T01:41:43.924Z,12.00
2022-08-21T01:44:10.979Z,12.00
2022-08-21T01:46:38.115Z,11.90
2022-08-21T01:49:05.931Z,11.90
2022-08-21T01:51:33.325Z,11.90
2022-08-21T01:54:00.353Z,11.90
2022-08-21T01:56:28.984Z,11.90
2022-08-21T01:58:56.211Z,11.90
2022-08-21T02:01:23.317Z,11.90
2022-08-21T02:03:50.346Z,11.80
2022-08-21T02:06:19.191Z,11.80
2022-08-21T02:08:47.515Z,11.80
2022-08-21T02:11:14.827Z,11.80
2022-08-21T02:13:41.946Z,11.80
2022-08-21T02:16:09.687Z,11.80
2022-08-21T02:18:37.418Z,11.80
2022-08-21T02:21:06.019Z,11.90
2022-08-21T02:23:33.715Z,11.90
2022-08-21T02:26:02.825Z,11.90
2022-08-21T02:28:31.277Z,11.90
2022-08-21T02:30:59.204Z,11.90
2022-08-21T02:33:27.107Z,11.90
2022-08-21T02:35:55.259Z,11.90
2022-08-21T02:38:27.248Z,11.90
2022-08-21T02:40:55.434Z,11.80
2022-08-21T02:43:25.199Z,11.80
2022-08-21T02:45:52.792Z,11.80
2022-08-21T02:48:24.499Z,11.80
2022-08-21T02:50:58.114Z,11.70
2022-08-21T02:53:25.579Z,11.70
2022-08-21T02:55:53.469Z,11.70
2022-08-21T02:58:27.688Z,11.60
2022-08-21T03:00:55.104Z,11.60
2022-08-21T03:03:22.392Z,11.60
2022-08-21T03:05:49.764Z,11.50
2022-08-21T03:08:17.231Z,11.50
2022-08-21T03:10:48.873Z,11.50
2022-08-21T03:13:16.746Z,11.50
2022-08-21T03:15:44.382Z,11.40
2022-08-21T03:18:12.769Z,11.40
2022-08-21T03:20:41.488Z,11.30
2022-08-21T03:23:13.388Z,11.20
2022-08-21T03:25:42.250Z,11.20
2022-08-21T03:28:16.699Z,11.10
2022-08-21T03:30:46.529Z,11.10
2022-08-21T03:33:15.492Z,11.10
2022-08-21T03:35:45.451Z,11.10
2022-08-21T03:38:14.118Z,11.00
2022-08-21T03:40:43.203Z,10.90
2022-08-21T03:43:10.694Z,10.80
2022-08-21T03:45:39.143Z,10.70
2022-08-21T03:48:09.027Z,10.60
2022-08-21T03:50:40.797Z,10.50
2022-08-21T03:53:17.075Z,10.50
2022-08-21T03:55:50.009Z,10.50
2022-08-21T03:58:18.989Z,10.50
2022-08-21T04:00:47.846Z,10.50
2022-08-21T04:03:14.919Z,10.40
2022-08-21T04:05:42.854Z,10.40
2022-08-21T04:08:09.860Z,10.40
2022-08-21T04:10:39.036Z,10.40
2022-08-21T04:13:07.270Z,10.40
2022-08-21T04:15:34.526Z,10.40
2022-08-21T04:18:01.504Z,10.40
2022-08-21T04:20:29.495Z,10.40
2022-08-21T04:22:57.527Z,10.40
2022-08-21T04:25:26.582Z,10.40
2022-08-21T04:27:54.005Z,10.50
2022-08-21T04:30:28.157Z,10.50
2022-08-21T04:32:56.935Z,10.50
2022-08-21T04:35:25.625Z,10.50
2022-08-21T04:37:52.791Z,10.60
2022-08-21T04:40:21.631Z,10.60
2022-08-21T04:42:51.630Z,10.60
2022-08-21T04:45:21.748Z,10.60
2022-08-21T04:47:53.118Z,10.60
2022-08-21T04:50:23.610Z,10.60
2022-08-21T04:52:50.674Z,10.60
2022-08-21T04:55:19.208Z,10.60
2022-08-21T04:57:49.096Z,10.70
2022-08-21T05:00:19.901Z,10.80
2022-08-21T05:02:48.825Z,10.90
2022-08-21T05:05:17.171Z,11.10
2022-08-21T05:07:45.691Z,11.20
2022-08-21T05:10:15.245Z,11.30
2022-08-21T05:12:46.195Z,11.40
2022-08-21T05:15:14.350Z,11.50
2022-08-21T05:17:42.565Z,11.60
2022-08-21T05:20:14.661Z,11.70
2022-08-21T05:22:41.729Z,11.80
2022-08-21T05:25:10.877Z,11.90
2022-08-21T05:27:39.758Z,12.00
2022-08-21T05:30:11.414Z,12.10
2022-08-21T05:32:38.428Z,12.20
2022-08-21T05:35:07.142Z,12.40
2022-08-21T05:37:35.026Z,12.50
2022-08-21T05:40:20.382Z,12.50
2022-08-21T05:42:56.009Z,12.60
2022-08-21T05:45:41.944Z,12.70
2022-08-21T05:48:23.032Z,12.90
2022-08-21T05:50:51.522Z,13.00
2022-08-21T05:53:24.590Z,13.20
2022-08-21T05:55:52.818Z,13.40
2022-08-21T05:58:22.953Z,14.10
2022-08-21T06:00:52.736Z,15.00
2022-08-21T06:03:26.878Z,16.00
2022-08-21T06:05:54.701Z,17.30
2022-08-21T06:08:23.716Z,18.40
2022-08-21T06:10:55.257Z,19.60
2022-08-21T06:13:23.539Z,20.50
2022-08-21T06:15:51.150Z,21.50
2022-08-21T06:18:18.567Z,22.20
2022-08-21T06:20:45.889Z,23.00
2022-08-21T06:23:13.990Z,23.90
2022-08-21T06:25:41.434Z,24.40
2022-08-21T06:28:11.119Z,24.90
2022-08-21T06:31:14.318Z,25.30
2022-08-21T06:33:52.547Z,25.50
2022-08-21T06:36:30.518Z,26.00
2022-08-21T06:39:00.095Z,26.30
2022-08-21T06:41:28.390Z,26.90
2022-08-21T06:44:02.817Z,26.80
2022-08-21T06:46:32.971Z,26.90
2022-08-21T06:49:00.168Z,27.10
2022-08-21T06:51:28.081Z,27.40
2022-08-21T06:53:55.703Z,27.70
2022-08-21T06:56:22.941Z,28.30
2022-08-21T06:58:50.647Z,28.50
2022-08-21T07:01:18.012Z,28.90
2022-08-21T07:03:45.711Z,29.00
2022-08-21T07:06:13.104Z,28.70
2022-08-21T07:08:40.282Z,28.80
2022-08-21T07:11:20.795Z,28.60
2022-08-21T07:13:48.326Z,28.90
2022-08-21T07:16:15.611Z,29.10
2022-08-21T07:18:42.900Z,29.30
2022-08-21T07:21:10.702Z,29.70
2022-08-21T07:23:49.857Z,29.80
2022-08-21T07:26:21.783Z,29.70
2022-08-21T07:28:49.811Z,29.70
2022-08-21T07:31:19.794Z,29.90
2022-08-21T07:33:46.956Z,30.10
2022-08-21T07:36:14.627Z,30.00
2022-08-21T07:38:41.715Z,29.70
2022-08-21T07:41:27.197Z,29.70
2022-08-21T07:43:54.435Z,29.80
2022-08-21T07:46:21.553Z,29.90
2022-08-21T07:48:48.885Z,29.80
2022-08-21T07:51:18.159Z,30.00
2022-08-21T07:53:53.019Z,30.00
2022-08-21T07:56:20.374Z,29.60
2022-08-21T07:58:48.239Z,29.20
2022-08-21T08:01:15.541Z,28.90
2022-08-21T08:03:42.655Z,29.00
2022-08-21T08:06:13.340Z,29.20
2022-08-21T08:08:41.943Z,29.50
2022-08-21T08:11:16.144Z,29.60
2022-08-21T08:13:45.271Z,30.00
2022-08-21T08:16:12.309Z,29.70
2022-08-21T08:18:39.812Z,29.80
2022-08-21T08:21:08.844Z,30.20
2022-08-21T08:23:36.027Z,30.50
2022-08-21T08:26:06.763Z,30.30
2022-08-21T08:28:34.727Z,30.70
2022-08-21T08:31:02.424Z,31.00
2022-08-21T08:33:29.667Z,30.80
2022-08-21T08:35:57.580Z,30.60
2022-08-21T08:38:26.284Z,30.50
2022-08-21T08:41:16.855Z,30.30
2022-08-21T08:43:52.019Z,30.50
2022-08-21T08:46:25.414Z,30.60
2022-08-21T08:49:04.580Z,30.80
2022-08-21T08:51:53.128Z,30.90
2022-08-21T08:54:35.957Z,31.20
2022-08-21T08:57:08.898Z,31.10
2022-08-21T08:59:45.501Z,30.90
2022-08-21T09:02:14.928Z,31.20
2022-08-21T09:04:43.529Z,31.00
2022-08-21T09:07:46.408Z,30.80
2022-08-21T09:10:31.492Z,30.40
2022-08-21T09:13:05.125Z,30.70
2022-08-21T09:15:46.616Z,30.80
2022-08-21T09:19:08.477Z,30.80
2022-08-21T09:21:45.981Z,30.80
2022-08-21T09:24:33.211Z,30.60
2022-08-21T09:27:11.832Z,30.60
2022-08-21T09:29:45.232Z,30.20
2022-08-21T09:32:19.653Z,30.40
2022-08-21T09:35:18.138Z,30.50
2022-08-21T09:38:08.530Z,30.40
2022-08-21T09:40:45.466Z,30.40
2022-08-21T09:43:12.398Z,30.70
2022-08-21T09:45:42.951Z,30.80
2022-08-21T09:48:33.278Z,30.50
2022-08-21T09:51:10.159Z,30.20
2022-08-21T09:53:44.082Z,29.80
2022-08-21T09:56:48.608Z,29.70
2022-08-21T09:59:25.887Z,29.60
2022-08-21T10:01:54.458Z,29.80
2022-08-21T10:04:30.799Z,29.70
2022-08-21T10:07:12.357Z,29.60
2022-08-21T10:10:22.708Z,29.60
2022-08-21T10:13:01.742Z,29.70
2022-08-21T10:15:57.695Z,30.20
2022-08-21T10:18:40.613Z,30.50
2022-08-21T10:21:45.256Z,30.20
2022-08-21T10:24:34.575Z,29.90
2022-08-21T10:27:26.723Z,29.70
2022-08-21T10:29:57.780Z,28.70
2022-08-21T10:33:07.783Z,27.90
2022-08-21T10:35:42.615Z,27.10
2022-08-21T10:38:58.608Z,26.90
2022-08-21T10:42:04.967Z,26.80
2022-08-21T10:44:40.364Z,27.30
2022-08-21T10:47:20.751Z,27.70
2022-08-21T10:50:13.839Z,27.90
2022-08-21T10:53:13.773Z,28.10
2022-08-21T10:56:03.154Z,28.20
2022-08-21T10:58:39.754Z,28.60
2022-08-21T11:01:17.069Z,28.90
2022-08-21T11:03:51.928Z,28.90
2022-08-21T11:06:30.901Z,29.00
2022-08-21T11:09:25.968Z,29.40
2022-08-21T11:12:11.377Z,29.80
2022-08-21T11:14:54.472Z,30.00
2022-08-21T11:17:33.526Z,29.70
2022-08-21T11:20:11.516Z,29.00
2022-08-21T11:22:50.209Z,28.00
2022-08-21T11:25:37.108Z,26.90
2022-08-21T11:28:18.494Z,26.60
2022-08-21T11:31:08.388Z,27.10
2022-08-21T11:33:46.667Z,27.70
2022-08-21T11:36:55.455Z,28.30
2022-08-21T11:39:54.840Z,28.80
2022-08-21T11:42:29.875Z,28.90
2022-08-21T11:45:08.902Z,29.10
2022-08-21T11:47:49.946Z,29.50
2022-08-21T11:50:34.528Z,29.80
2022-08-21T11:53:26.072Z,30.10
2022-08-21T11:56:16.405Z,30.00
2022-08-21T11:58:47.655Z,29.50
2022-08-21T12:01:20.934Z,29.00
2022-08-21T12:03:57.390Z,29.10
2022-08-21T12:06:37.652Z,28.90
2022-08-21T12:09:08.476Z,27.90
2022-08-21T12:11:50.335Z,27.40
2022-08-21T12:14:20.391Z,27.30
2022-08-21T12:16:50.207Z,27.60
2022-08-21T12:19:26.334Z,27.80
2022-08-21T12:21:55.830Z,27.90
2022-08-21T12:24:28.690Z,28.50
2022-08-21T12:27:02.166Z,29.00
2022-08-21T12:29:32.787Z,29.60
2022-08-21T12:32:40.527Z,29.60
2022-08-21T12:35:28.752Z,29.30
2022-08-21T12:38:19.731Z,28.70
2022-08-21T12:41:07.008Z,27.90
2022-08-21T12:43:44.279Z,27.20
2022-08-21T12:46:28.935Z,26.80
2022-08-21T12:49:01.088Z,26.60
2022-08-21T12:51:37.535Z,26.60
2022-08-21T12:54:04.791Z,27.10
2022-08-21T12:56:37.232Z,27.70
2022-08-21T12:59:06.263Z,27.80
2022-08-21T13:01:41.403Z,27.50
2022-08-21T13:04:13.284Z,27.20
2022-08-21T13:06:46.832Z,27.40
2022-08-21T13:09:17.664Z,27.40
2022-08-21T13:11:47.832Z,27.10
2022-08-21T13:14:47.480Z,26.80
2022-08-21T13:17:23.609Z,26.50
2022-08-21T13:20:03.014Z,26.80
2022-08-21T13:22:34.891Z,27.50
2022-08-21T13:25:06.531Z,28.50
2022-08-21T13:27:35.272Z,29.50
2022-08-21T13:30:06.412Z,29.90
2022-08-21T13:32:37.104Z,30.40
2022-08-21T13:35:18.563Z,31.10
2022-08-21T13:37:48.465Z,31.50
2022-08-21T13:40:46.999Z,31.70
2022-08-21T13:43:21.124Z,31.50
2022-08-21T13:46:03.225Z,31.10
2022-08-21T13:48:38.668Z,31.20
2022-08-21T13:51:06.472Z,31.40
2022-08-21T13:53:53.425Z,31.60
2022-08-21T13:56:33.879Z,31.20
2022-08-21T13:59:02.895Z,30.20
2022-08-21T14:01:37.691Z,29.60
2022-08-21T14:04:13.431Z,29.70
2022-08-21T14:06:40.472Z,29.40
2022-08-21T14:09:14.198Z,28.80
2022-08-21T14:11:41.435Z,28.00
2022-08-21T14:14:34.965Z,27.40
2022-08-21T14:17:24.268Z,27.20
2022-08-21T14:19:52.161Z,27.70
2022-08-21T14:22:39.672Z,27.90
2022-08-21T14:25:17.160Z,27.60
2022-08-21T14:27:57.964Z,27.20
2022-08-21T14:30:40.414Z,26.80
2022-08-21T14:33:13.901Z,26.60
2022-08-21T14:35:41.566Z,26.20
2022-08-21T14:38:20.883Z,25.80
2022-08-21T14:40:51.336Z,25.90
2022-08-21T14:43:20.196Z,26.40
2022-08-21T14:45:50.604Z,27.00
2022-08-21T14:48:20.245Z,27.70
2022-08-21T14:50:48.423Z,28.60
2022-08-21T14:53:15.646Z,29.00
2022-08-21T14:56:01.063Z,29.40
2022-08-21T14:58:28.187Z,29.80
2022-08-21T15:00:57.522Z,29.90
2022-08-21T15:03:27.393Z,30.20
2022-08-21T15:05:54.506Z,30.00
2022-08-21T15:08:21.612Z,30.00
2022-08-21T15:11:10.668Z,29.80
2022-08-21T15:13:37.283Z,30.00
2022-08-21T15:16:04.509Z,30.00
2022-08-21T15:18:32.154Z,29.70
2022-08-21T15:20:59.220Z,29.80
2022-08-21T15:23:26.512Z,30.10
2022-08-21T15:25:54.414Z,30.30
2022-08-21T15:28:22.246Z,30.10
2022-08-21T15:30:52.018Z,30.00
2022-08-21T15:33:20.010Z,30.20
2022-08-21T15:35:47.319Z,30.20
2022-08-21T15:38:15.926Z,30.60
2022-08-21T15:40:51.584Z,30.60
2022-08-21T15:43:31.923Z,30.50
2022-08-21T15:46:02.873Z,30.30
2022-08-21T15:48:30.250Z,30.30
2022-08-21T15:50:58.107Z,30.20
2022-08-21T15:53:25.168Z,30.50
2022-08-21T15:55:52.214Z,30.80
2022-08-21T15:58:25.247Z,30.70
2022-08-21T16:00:52.760Z,31.00
2022-08-21T16:03:22.711Z,30.90
2022-08-21T16:05:53.237Z,30.80
2022-08-21T16:08:24.014Z,30.30
2022-08-21T16:10:52.027Z,30.00
2022-08-21T16:16:13.483Z,30.20
2022-08-21T16:18:41.074Z,30.20
2022-08-21T16:21:08.174Z,30.40
2022-08-21T16:23:36.209Z,30.60
2022-08-21T16:26:04.058Z,30.90
2022-08-21T16:28:32.495Z,30.60
2022-08-21T16:30:59.560Z,30.40
2022-08-21T16:33:26.660Z,30.10
2022-08-21T16:35:53.918Z,30.10
2022-08-21T16:38:21.323Z,30.00
2022-08-21T16:40:49.474Z,29.80
2022-08-21T16:43:25.160Z,29.70
2022-08-21T16:45:53.743Z,29.70
2022-08-21T16:48:21.060Z,29.80
2022-08-21T16:50:51.078Z,30.00
2022-08-21T16:53:21.450Z,29.50
2022-08-21T16:55:48.987Z,28.50
2022-08-21T16:58:43.134Z,27.70
2022-08-21T17:01:13.143Z,26.80
2022-08-21T17:03:45.848Z,26.00
2022-08-21T17:06:15.132Z,25.40
2022-08-21T17:08:42.170Z,24.90
2022-08-21T17:11:38.121Z,24.50
2022-08-21T17:14:13.933Z,24.10
2022-08-21T17:16:46.626Z,23.80
2022-08-21T17:19:17.604Z,23.40
2022-08-21T17:22:04.115Z,23.30
2022-08-21T17:24:31.256Z,23.10
2022-08-21T17:26:59.642Z,22.90
2022-08-21T17:29:31.660Z,22.70
2022-08-21T17:31:58.791Z,22.60
2022-08-21T17:34:30.121Z,22.40
2022-08-21T17:37:01.387Z,22.20
2022-08-21T17:39:28.483Z,22.10
2022-08-21T17:41:58.397Z,21.90
2022-08-21T17:44:26.176Z,21.60
2022-08-21T17:46:53.763Z,21.50
2022-08-21T17:49:20.833Z,21.30
2022-08-21T17:51:48.154Z,21.10
2022-08-21T17:54:15.175Z,20.90
2022-08-21T17:56:43.013Z,20.80
2022-08-21T17:59:11.450Z,20.60
2022-08-21T18:01:42.754Z,20.40
2022-08-21T18:04:11.046Z,20.20
2022-08-21T18:06:38.255Z,20.10
2022-08-21T18:09:05.991Z,19.90
2022-08-21T18:11:33.717Z,19.70
2022-08-21T18:14:07.374Z,19.50
2022-08-21T18:16:37.808Z,19.30
2022-08-21T18:19:10.759Z,19.10
2022-08-21T18:21:37.886Z,18.90
2022-08-21T18:24:05.351Z,18.80
2022-08-21T18:26:35.663Z,18.60
2022-08-21T18:29:05.244Z,18.50
2022-08-21T18:31:35.187Z,18.40
2022-08-21T18:34:09.042Z,18.30
2022-08-21T18:36:36.050Z,18.10
2022-08-21T18:39:25.673Z,17.90
2022-08-21T18:41:51.587Z,17.70
2022-08-21T18:44:20.747Z,17.60
2022-08-21T18:47:18.723Z,17.50
2022-08-21T18:49:45.695Z,17.40
2022-08-21T18:52:20.311Z,17.30
2022-08-21T18:54:49.811Z,17.20
2022-08-21T18:57:19.133Z,17.10
2022-08-21T18:59:48.624Z,17.00
2022-08-21T19:02:16.288Z,17.00
2022-08-21T19:04:44.986Z,17.00
2022-08-21T19:07:14.116Z,16.90
2022-08-21T19:09:43.003Z,16.70
2022-08-21T19:12:16.299Z,16.60
2022-08-21T19:14:44.229Z,16.50
2022-08-21T19:17:13.832Z,16.50
2022-08-21T19:19:47.180Z,16.50
2022-08-21T19:22:23.554Z,16.40
2022-08-21T19:24:54.205Z,16.30
2022-08-21T19:27:21.397Z,16.20
2022-08-21T19:29:53.147Z,16.20
2022-08-21T19:32:20.402Z,16.20
2022-08-21T19:34:50.075Z,16.20
2022-08-21T19:37:22.487Z,16.20
2022-08-21T19:39:50.548Z,16.30
2022-08-21T19:42:21.630Z,16.30
2022-08-21T19:47:40.541Z,16.30
2022-08-21T19:50:17.654Z,16.30
2022-08-21T19:52:51.360Z,16.20
2022-08-21T19:55:25.768Z,16.20
2022-08-21T19:57:54.771Z,16.20
2022-08-21T20:00:22.504Z,16.10
2022-08-21T20:02:51.388Z,15.90
2022-08-21T20:05:18.623Z,15.90
2022-08-21T20:07:48.494Z,15.90
2022-08-21T20:10:15.790Z,15.80
2022-08-21T20:12:45.067Z,15.80
2022-08-21T20:15:12.207Z,15.80
2022-08-21T20:17:43.108Z,15.70
2022-08-21T20:20:10.315Z,15.70
2022-08-21T20:22:40.099Z,15.60
2022-08-21T20:25:08.203Z,15.60
2022-08-21T20:27:40.346Z,15.60
2022-08-21T20:30:08.759Z,15.50
2022-08-21T20:32:36.283Z,15.50
2022-08-21T20:35:04.571Z,15.40
2022-08-21T20:37:36.196Z,15.40
2022-08-21T20:42:57.975Z,15.20
2022-08-21T20:45:28.888Z,15.20
2022-08-21T20:48:12.323Z,15.20
2022-08-21T20:50:52.276Z,15.20
2022-08-21T20:53:55.174Z,15.10
2022-08-21T20:56:54.169Z,15.00
2022-08-21T20:59:33.362Z,15.00
2022-08-21T21:02:44.868Z,15.00
2022-08-21T21:05:20.775Z,15.10
2022-08-21T21:07:52.734Z,15.10
2022-08-21T21:10:44.849Z,15.10
2022-08-21T21:13:53.461Z,15.10
2022-08-21T21:16:31.717Z,15.10
2022-08-21T21:19:03.647Z,15.10
2022-08-21T21:21:51.608Z,15.10
2022-08-21T21:24:38.247Z,15.00
2022-08-21T21:27:19.852Z,15.00
2022-08-21T21:30:12.001Z,14.90
2022-08-21T21:32:39.541Z,14.90
2022-08-21T21:35:07.975Z,14.80
2022-08-21T21:37:47.002Z,14.80
2022-08-21T21:40:44.568Z,14.80
2022-08-21T21:43:24.172Z,14.70
2022-08-21T21:46:19.113Z,14.70
2022-08-21T21:48:52.639Z,14.60
2022-08-21T21:51:20.498Z,14.60
2022-08-21T21:54:13.255Z,14.60
2022-08-21T21:56:56.028Z,14.60
2022-08-21T21:59:54.371Z,14.70
2022-08-21T22:02:39.562Z,14.80
2022-08-21T22:05:27.327Z,14.90
2022-08-21T22:08:30.020Z,15.00
2022-08-21T22:10:59.461Z,15.10
2022-08-21T22:13:45.716Z,15.10
2022-08-21T22:16:16.488Z,15.10
2022-08-21T22:18:59.070Z,15.00
2022-08-21T22:21:36.294Z,15.10
2022-08-21T22:24:16.891Z,15.00
2022-08-21T22:26:55.262Z,15.00
2022-08-21T22:29:23.515Z,15.00
2022-08-21T22:32:08.810Z,15.00
2022-08-21T22:34:37.010Z,15.00
2022-08-21T22:37:08.887Z,14.90
2022-08-21T22:39:38.751Z,14.90
2022-08-21T22:42:23.887Z,14.80
2022-08-21T22:44:51.891Z,14.80
2022-08-21T22:47:44.571Z,14.80
2022-08-21T22:50:32.682Z,14.70
2022-08-21T22:53:03.754Z,14.70
2022-08-21T22:58:40.935Z,14.60
2022-08-21T23:01:22.887Z,14.60
2022-08-21T23:03:57.420Z,14.60
2022-08-21T23:06:33.182Z,14.60
2022-08-21T23:09:00.874Z,14.50
2022-08-21T23:14:28.707Z,14.40
2022-08-21T23:17:18.443Z,14.30
2022-08-21T23:19:57.843Z,14.20
2022-08-21T23:22:55.062Z,14.10
2022-08-21T23:25:37.406Z,14.10
2022-08-21T23:28:16.923Z,14.00
2022-08-21T23:31:01.112Z,14.00
2022-08-21T23:33:46.632Z,14.00
2022-08-21T23:37:18.511Z,13.90
2022-08-21T23:40:02.815Z,13.90
2022-08-21T23:42:51.780Z,13.80
2022-08-21T23:45:32.902Z,13.70
2022-08-21T23:51:33.891Z,13.50
2022-08-21T23:54:27.094Z,13.50
2022-08-21T23:57:08.031Z,13.40
2022-08-21T23:59:58.287Z,13.30
